This is the latest recevied weather packets stored in our database for station/object DC1SK-6. If no packets are shown the sender has not sent any weather packets the latest 10 day(s).
| Time | Temp. | Humidity | Pressure | Rain* | Wind** | Luminosity | Snow |
|---|---|---|---|---|---|---|---|
| 1777831784 | 20.56° C | 54% | - | 0 mm | - | 24 W/m² | - |
| 1777831194 | 20.56° C | 52% | - | 0 mm | - | 24 W/m² | - |
| 1777830083 | 21.67° C | 48% | - | 0 mm | - | 35 W/m² | - |
| 1777829519 | 21.67° C | 46% | - | 0 mm | - | 41 W/m² | - |
| 1777828369 | 22.78° C | 43% | - | 0 mm | - | 43 W/m² | - |
| 1777827834 | 22.78° C | 42% | - | 0 mm | - | 53 W/m² | - |
| 1777827310 | 23.89° C | 41% | - | 0 mm | - | 76 W/m² | - |
| 1777826694 | 23.89° C | 41% | - | 0 mm | - | 76 W/m² | - |
| 1777826052 | 23.89° C | 40% | - | 0 mm | - | 75 W/m² | - |
| 1777825558 | 25° C | 39% | - | 0 mm | - | 102 W/m² | - |
| 1777825079 | 25.56° C | 36% | - | 0 mm | - | 182 W/m² | - |
| 1777824553 | 25.56° C | 36% | - | 0 mm | - | 182 W/m² | - |
| 1777824021 | 25.56° C | 37% | - | 0 mm | - | 187 W/m² | - |
| 1777822687 | 25° C | 38% | - | 0 mm | - | 127 W/m² | - |
| 1777822106 | 25° C | 37% | - | 0 mm | - | 258 W/m² | - |
| 1777821526 | 26.11° C | 36% | - | 0 mm | - | 398 W/m² | - |
| 1777820294 | 25.56° C | 38% | - | 0 mm | - | 395 W/m² | - |
| 1777819784 | 26.11° C | 37% | - | 0 mm | - | 381 W/m² | - |
| 1777819229 | 26.67° C | 33% | - | 0 mm | - | 418 W/m² | - |
| 1777818733 | 26.67° C | 33% | - | 0 mm | - | 418 W/m² | - |
| 1777818148 | 26.11° C | 36% | - | 0 mm | - | 260 W/m² | - |
| 1777817598 | 26.11° C | 35% | - | 0 mm | - | 230 W/m² | - |
| 1777817014 | 26.67° C | 35% | - | 0 mm | - | 343 W/m² | - |
| 1777815892 | 25.56° C | 37% | - | 0 mm | - | 261 W/m² | - |
| 1777815305 | 25.56° C | 35% | - | 0 mm | - | 261 W/m² | - |
* Rain latest hour (hover to see other rain measurements)
** Current wind speed in m/s (hover to see current wind gust speed)